Time;durP1;ratioP1;P1;durP2;ratioP2;P2;SDS_P1;SDS_P2;PMS_P1;PMS_P2;Temp;Humidity;BMP_temperature;BMP_pressure;BME280_temperature;BME280_humidity;BME280_pressure;Samples;Min_cycle;Max_cycle;Signal;HPM_P1;HPM_P2
2021/09/29 00:00:09;;;;;;;16.80;7.00;;;;;;;11.62;77.11;100925.36;113759;1198;22552;-60
2021/09/29 00:02:58;;;;;;;22.90;7.90;;;;;;;11.57;77.18;100926.63;113500;1198;24020;-60
2021/09/29 00:05:26;;;;;;;17.90;6.60;;;;;;;11.52;77.13;100924.02;113601;1198;24041;-59
2021/09/29 00:07:55;;;;;;;22.30;7.80;;;;;;;11.47;77.02;100925.73;113690;1198;22487;-58
2021/09/29 00:10:23;;;;;;;18.80;7.00;;;;;;;11.43;77.02;100922.48;113683;1198;25314;-59
2021/09/29 00:12:52;;;;;;;18.40;7.40;;;;;;;11.38;77.07;100919.81;113660;1198;22434;-61
2021/09/29 00:15:20;;;;;;;17.60;6.40;;;;;;;11.34;77.25;100918.48;113673;1198;22611;-61
2021/09/29 00:17:48;;;;;;;19.70;7.60;;;;;;;11.29;77.22;100920.79;113542;1192;22464;-61
2021/09/29 00:20:17;;;;;;;19.90;7.50;;;;;;;11.25;77.23;100921.23;113658;1198;22459;-60
2021/09/29 00:22:45;;;;;;;21.90;8.00;;;;;;;11.21;77.16;100915.91;113887;1198;24186;-59
2021/09/29 00:25:16;;;;;;;19.20;7.10;;;;;;;11.15;77.23;100912.73;113788;1198;24196;-59
2021/09/29 00:27:45;;;;;;;19.50;7.90;;;;;;;11.09;77.21;100912.52;113979;1198;22560;-58
2021/09/29 00:30:15;;;;;;;20.10;7.70;;;;;;;11.05;77.33;100906.30;113565;1198;24341;-59
2021/09/29 00:32:43;;;;;;;16.50;7.70;;;;;;;11.02;77.34;100910.84;113676;1198;22681;-59
2021/09/29 00:35:14;;;;;;;16.50;6.10;;;;;;;10.99;77.41;100905.15;113655;1198;24109;-58
2021/09/29 00:37:43;;;;;;;19.00;7.00;;;;;;;10.95;77.28;100905.80;113772;1198;25130;-60
2021/09/29 00:40:13;;;;;;;21.60;8.00;;;;;;;10.92;77.51;100903.48;113752;1198;22433;-61
2021/09/29 00:42:41;;;;;;;21.90;7.70;;;;;;;10.88;77.39;100903.13;113838;1198;24114;-58
2021/09/29 00:45:10;;;;;;;23.40;7.80;;;;;;;10.85;77.53;100901.38;113722;1198;22436;-60
2021/09/29 00:47:39;;;;;;;20.60;7.80;;;;;;;10.83;77.55;100902.02;113668;1198;22426;-58
2021/09/29 00:50:10;;;;;;;19.00;8.30;;;;;;;10.78;77.61;100901.02;113740;1198;22446;-58
2021/09/29 00:52:40;;;;;;;22.80;8.80;;;;;;;10.74;77.76;100902.23;113658;1198;25212;-59
2021/09/29 00:55:10;;;;;;;;;;;;;;;10.71;77.53;100897.77;113686;1198;25092;-61
2021/09/29 00:57:38;;;;;;;23.80;8.00;;;;;;;10.64;77.71;100897.56;113642;1198;23556;-59
2021/09/29 01:00:10;;;;;;;22.10;8.50;;;;;;;10.59;77.67;100897.52;113697;1198;22415;-59
2021/09/29 01:02:38;;;;;;;23.60;8.90;;;;;;;10.56;77.84;100899.42;113742;1198;24197;-59
2021/09/29 01:05:08;;;;;;;23.80;8.30;;;;;;;10.53;77.91;100900.24;113636;1198;22437;-60
2021/09/29 01:07:44;;;;;;;19.50;7.60;;;;;;;10.52;77.95;100896.95;113721;1198;26329;-61
2021/09/29 01:10:19;;;;;;;24.00;8.80;;;;;;;10.49;77.93;100895.97;113667;1193;22425;-56
2021/09/29 01:12:52;;;;;;;22.20;8.80;;;;;;;10.46;77.87;100898.80;113740;1198;22414;-60
2021/09/29 01:15:26;;;;;;;20.10;9.40;;;;;;;10.41;78.07;100896.54;113607;1198;22540;-59
2021/09/29 01:17:58;;;;;;;18.60;8.30;;;;;;;10.38;77.95;100895.88;113586;1198;22434;-61
2021/09/29 01:20:32;;;;;;;18.20;8.30;;;;;;;10.34;78.08;100895.25;113726;1197;22453;-60
2021/09/29 01:23:11;;;;;;;21.10;8.00;;;;;;;10.32;78.12;100893.66;113659;1198;23000;-60
2021/09/29 01:25:49;;;;;;;20.70;8.40;;;;;;;10.29;78.22;100890.41;114235;1198;24116;-61
2021/09/29 01:28:27;;;;;;;21.30;8.30;;;;;;;10.27;78.36;100886.85;114325;1198;24120;-59
2021/09/29 01:30:56;;;;;;;19.90;7.00;;;;;;;10.25;78.52;100884.63;113799;1198;25362;-58
2021/09/29 01:33:25;;;;;;;21.60;8.50;;;;;;;10.24;78.59;100879.02;113785;1198;22565;-61
2021/09/29 01:35:53;;;;;;;18.80;7.20;;;;;;;10.23;78.57;100873.15;113965;1198;26376;-60
2021/09/29 01:38:23;;;;;;;19.30;6.70;;;;;;;10.23;78.76;100875.84;113651;1193;22427;-58
2021/09/29 01:40:53;;;;;;;20.20;8.40;;;;;;;10.23;78.93;100873.52;114089;1192;23668;-58
2021/09/29 01:43:22;;;;;;;20.10;8.20;;;;;;;10.23;78.90;100872.09;113698;1193;22467;-59
2021/09/29 01:45:50;;;;;;;19.30;7.90;;;;;;;10.25;79.27;100873.30;113662;1198;22454;-58
2021/09/29 01:48:19;;;;;;;23.10;8.80;;;;;;;10.26;79.46;100876.04;113557;1198;22434;-61
2021/09/29 01:50:51;;;;;;;19.50;8.90;;;;;;;10.27;79.32;100871.54;113726;1198;24658;-60
2021/09/29 01:53:24;;;;;;;23.10;8.80;;;;;;;10.27;79.17;100872.50;113812;1198;23703;-60
2021/09/29 01:55:52;;;;;;;20.90;8.60;;;;;;;10.26;79.31;100871.89;113787;1198;25105;-58
2021/09/29 01:58:21;;;;;;;21.40;8.00;;;;;;;10.24;79.26;100873.80;113652;1190;22446;-58
2021/09/29 02:00:50;;;;;;;20.00;8.10;;;;;;;10.22;79.28;100871.81;113721;1198;25032;-58
2021/09/29 02:03:23;;;;;;;18.90;7.90;;;;;;;10.20;79.32;100865.15;113643;1192;22465;-58
2021/09/29 02:05:52;;;;;;;21.10;7.30;;;;;;;10.19;79.21;100865.58;113768;1198;25208;-58
2021/09/29 02:08:21;;;;;;;19.70;8.10;;;;;;;10.17;79.11;100862.57;113618;1198;23842;-60
2021/09/29 02:10:50;;;;;;;22.70;9.10;;;;;;;10.13;79.13;100861.77;113574;1190;25729;-59
2021/09/29 02:13:18;;;;;;;18.90;8.40;;;;;;;10.10;79.06;100856.92;113679;1193;22678;-58
2021/09/29 02:15:46;;;;;;;18.80;8.20;;;;;;;10.07;79.12;100857.98;113664;1198;22453;-58
2021/09/29 02:18:14;;;;;;;17.20;6.80;;;;;;;10.05;79.08;100853.91;113665;1198;24203;-59
2021/09/29 02:20:44;;;;;;;18.10;7.10;;;;;;;10.04;79.03;100852.64;113571;1198;22440;-58
2021/09/29 02:23:12;;;;;;;20.40;7.90;;;;;;;10.01;79.07;100853.77;113603;1198;25560;-59
2021/09/29 02:25:42;;;;;;;21.10;8.20;;;;;;;9.98;79.05;100851.85;113815;1198;24027;-60
2021/09/29 02:28:10;;;;;;;17.30;7.20;;;;;;;9.94;78.93;100854.13;113555;1193;23398;-58
2021/09/29 02:30:39;;;;;;;18.40;7.30;;;;;;;9.91;78.84;100852.19;113681;1193;22460;-55
2021/09/29 02:33:07;;;;;;;19.80;6.60;;;;;;;9.86;78.78;100848.48;113796;1192;25024;-58
2021/09/29 02:35:36;;;;;;;20.30;7.40;;;;;;;9.82;79.03;100845.77;113617;1198;24001;-61
2021/09/29 02:38:04;;;;;;;23.60;7.20;;;;;;;9.79;79.02;100843.02;113600;1191;22999;-58
2021/09/29 02:40:33;;;;;;;19.10;6.90;;;;;;;9.76;79.10;100840.67;113721;1198;22433;-57
2021/09/29 02:43:01;;;;;;;21.80;7.10;;;;;;;9.74;79.10;100840.60;113588;1198;22530;-59
2021/09/29 02:45:29;;;;;;;17.00;7.00;;;;;;;9.70;78.94;100838.45;113448;1193;22412;-60
2021/09/29 02:47:58;;;;;;;21.20;7.00;;;;;;;9.65;78.94;100835.30;113300;1198;22540;-60
2021/09/29 02:50:26;;;;;;;18.20;6.10;;;;;;;9.62;79.15;100829.23;113464;1198;22410;-61
2021/09/29 02:52:54;;;;;;;21.30;7.20;;;;;;;9.60;79.19;100828.97;113301;1198;25100;-60
2021/09/29 02:55:22;;;;;;;18.20;6.60;;;;;;;9.58;79.11;100828.27;113496;1198;22464;-59
2021/09/29 02:57:52;;;;;;;16.10;6.60;;;;;;;9.55;79.24;100828.30;113678;1197;23150;-60
2021/09/29 03:00:21;;;;;;;20.90;7.30;;;;;;;9.52;79.13;100825.93;113593;1198;25057;-60
2021/09/29 03:02:49;;;;;;;19.20;7.10;;;;;;;9.50;79.28;100824.27;113722;1192;24075;-60
2021/09/29 03:05:18;;;;;;;18.60;7.10;;;;;;;9.47;79.22;100825.84;113831;1190;22564;-58
2021/09/29 03:07:49;;;;;;;18.10;6.10;;;;;;;9.43;79.15;100827.18;113656;1198;25054;-58
2021/09/29 03:10:17;;;;;;;18.70;6.80;;;;;;;9.38;79.07;100824.58;113635;1197;23859;-59
2021/09/29 03:12:45;;;;;;;20.00;7.10;;;;;;;9.35;79.19;100825.19;113679;1197;25010;-59
2021/09/29 03:15:14;;;;;;;18.50;6.90;;;;;;;9.32;79.24;100826.16;113627;1192;22558;-58
2021/09/29 03:17:44;;;;;;;20.30;6.20;;;;;;;9.30;79.23;100823.92;113788;1198;25715;-60
2021/09/29 03:20:14;;;;;;;18.40;7.00;;;;;;;9.28;79.43;100826.02;113867;1198;22436;-58
2021/09/29 03:22:42;;;;;;;18.50;6.60;;;;;;;9.24;79.45;100827.27;114044;1197;25048;-58
2021/09/29 03:25:11;;;;;;;19.20;7.00;;;;;;;9.22;79.22;100831.50;113706;1198;23796;-57
2021/09/29 03:27:39;;;;;;;18.60;6.60;;;;;;;9.19;79.29;100835.66;113703;1198;22562;-59
2021/09/29 03:30:09;;;;;;;17.10;6.50;;;;;;;9.16;79.30;100831.19;113596;1183;25417;-60
2021/09/29 03:32:37;;;;;;;17.80;6.70;;;;;;;9.11;79.22;100828.55;113639;1192;22435;-59
2021/09/29 03:35:08;;;;;;;18.10;5.80;;;;;;;9.07;79.10;100827.91;113582;1198;24116;-58
2021/09/29 03:37:35;;;;;;;;;;;;;;;9.06;79.20;100826.62;113758;1192;22412;-57
2021/09/29 03:40:04;;;;;;;17.40;6.40;;;;;;;9.02;79.20;100827.88;113595;1198;24007;-59
2021/09/29 03:42:32;;;;;;;19.40;7.10;;;;;;;8.99;79.20;100829.34;113697;1198;24089;-56
2021/09/29 03:45:00;;;;;;;16.70;7.60;;;;;;;8.95;79.27;100824.30;113737;1198;26314;-57
2021/09/29 03:47:28;;;;;;;19.20;7.00;;;;;;;8.94;79.27;100819.65;113562;1198;22434;-58
2021/09/29 03:49:56;;;;;;;22.50;8.10;;;;;;;8.93;79.35;100810.67;113746;1198;22620;-59
2021/09/29 03:52:25;;;;;;;18.50;7.80;;;;;;;8.94;79.56;100805.09;113706;1198;24060;-56
2021/09/29 03:54:53;;;;;;;18.80;6.40;;;;;;;8.92;79.50;100811.35;113649;1192;22435;-57
2021/09/29 03:57:23;;;;;;;21.80;7.00;;;;;;;8.87;79.46;100811.87;113538;1193;22447;-58
2021/09/29 03:59:51;;;;;;;18.20;7.30;;;;;;;8.84;79.57;100815.80;113727;1198;25723;-59
2021/09/29 04:02:19;;;;;;;17.10;7.00;;;;;;;8.81;79.65;100813.43;113558;1198;22647;-61
2021/09/29 04:04:47;;;;;;;20.30;7.40;;;;;;;8.78;79.55;100814.52;113546;1198;22476;-59
2021/09/29 04:07:15;;;;;;;21.90;7.60;;;;;;;8.75;79.56;100811.91;113673;1198;22439;-59
2021/09/29 04:09:46;;;;;;;21.90;7.60;;;;;;;8.74;79.60;100807.83;113677;1198;22627;-61
2021/09/29 04:12:14;;;;;;;18.40;7.20;;;;;;;8.73;79.69;100804.81;113759;1198;23047;-59
2021/09/29 04:14:43;;;;;;;19.30;7.50;;;;;;;8.73;79.62;100805.23;113686;1198;25183;-60
2021/09/29 04:17:11;;;;;;;16.00;6.80;;;;;;;8.71;79.84;100804.98;113654;1190;25943;-61
2021/09/29 04:19:39;;;;;;;20.10;7.80;;;;;;;8.70;80.00;100809.06;113712;1198;22440;-59
2021/09/29 04:22:10;;;;;;;23.30;8.50;;;;;;;8.69;79.75;100806.42;113624;1198;25052;-60
2021/09/29 04:24:38;;;;;;;19.80;7.80;;;;;;;8.66;79.67;100809.86;113768;1198;22418;-61
2021/09/29 04:27:09;;;;;;;19.20;8.50;;;;;;;8.63;79.64;100808.13;114002;1198;25065;-61
2021/09/29 04:29:36;;;;;;;;;;;;;;;8.63;79.70;100807.75;114181;1198;22885;-59
2021/09/29 04:32:07;;;;;;;23.20;8.40;;;;;;;8.60;79.69;100806.09;113540;1198;23108;-61
2021/09/29 04:34:36;;;;;;;21.60;8.20;;;;;;;8.57;79.74;100806.52;113773;1198;25052;-58
2021/09/29 04:37:05;;;;;;;21.70;7.60;;;;;;;8.55;79.82;100803.32;113575;1198;22516;-58
2021/09/29 04:39:33;;;;;;;21.30;7.80;;;;;;;8.55;80.00;100799.91;113341;1196;22429;-60
2021/09/29 04:42:01;;;;;;;25.10;8.80;;;;;;;8.55;79.90;100792.36;113137;1183;24181;-62
2021/09/29 04:44:29;;;;;;;30.90;11.30;;;;;;;8.54;79.86;100792.96;113297;1198;24634;-61
2021/09/29 04:46:58;;;;;;;24.50;9.00;;;;;;;8.53;80.18;100792.14;113214;1198;24664;-60
2021/09/29 04:49:27;;;;;;;20.10;7.60;;;;;;;8.50;80.12;100793.56;113231;1198;22422;-59
2021/09/29 04:51:55;;;;;;;23.00;9.30;;;;;;;8.50;80.16;100798.73;113310;1192;22926;-62
2021/09/29 04:54:23;;;;;;;23.60;9.10;;;;;;;8.51;80.19;100803.48;113242;1198;25321;-61
2021/09/29 04:56:52;;;;;;;18.80;7.80;;;;;;;8.51;80.31;100803.02;113205;1193;24957;-61
2021/09/29 04:59:20;;;;;;;26.80;9.40;;;;;;;8.50;80.28;100803.67;113217;1192;25061;-62
2021/09/29 05:01:53;;;;;;;23.30;8.40;;;;;;;8.50;80.43;100802.96;113275;1193;22453;-60
2021/09/29 05:04:23;;;;;;;22.60;7.90;;;;;;;8.51;80.49;100802.99;113384;1192;22532;-60
2021/09/29 05:06:54;;;;;;;18.50;8.70;;;;;;;8.52;80.71;100805.04;115244;1192;22453;-66
2021/09/29 05:09:23;;;;;;;20.80;8.80;;;;;;;8.54;80.88;100804.08;113158;1198;22422;-62
2021/09/29 05:12:04;;;;;;;18.50;8.10;;;;;;;8.56;80.79;100808.46;113366;1198;22413;-61
2021/09/29 05:14:32;;;;;;;21.70;8.90;;;;;;;8.58;80.73;100806.27;113280;1198;22439;-63
2021/09/29 05:17:00;;;;;;;22.00;9.40;;;;;;;8.59;80.94;100803.74;113355;1198;22427;-63
2021/09/29 05:19:28;;;;;;;28.90;9.60;;;;;;;8.59;81.00;100801.83;113440;1192;22992;-62
2021/09/29 05:21:56;;;;;;;21.70;8.80;;;;;;;8.61;81.07;100803.98;113354;1198;24274;-61
2021/09/29 05:24:24;;;;;;;21.90;9.70;;;;;;;8.63;81.16;100802.66;113466;1197;25139;-60
2021/09/29 05:26:52;;;;;;;25.60;9.90;;;;;;;8.64;81.14;100803.08;112975;1198;22429;-60
2021/09/29 05:29:23;;;;;;;21.00;8.90;;;;;;;8.66;81.31;100805.02;113208;1192;25193;-59
2021/09/29 05:31:51;;;;;;;25.30;9.50;;;;;;;8.69;81.18;100804.16;113175;1198;24166;-60
2021/09/29 05:34:20;;;;;;;21.70;9.00;;;;;;;8.71;81.29;100805.38;113196;1190;22431;-60
2021/09/29 05:36:48;;;;;;;24.80;9.80;;;;;;;8.74;81.43;100806.00;112916;1198;22433;-60
2021/09/29 05:39:16;;;;;;;24.20;8.70;;;;;;;8.78;81.51;100806.16;112915;1192;24129;-61
2021/09/29 05:41:45;;;;;;;27.70;9.30;;;;;;;8.82;81.60;100806.80;112905;1198;22499;-61
2021/09/29 05:44:13;;;;;;;23.60;8.80;;;;;;;8.87;81.74;100803.74;112857;1192;22475;-61
2021/09/29 05:46:41;;;;;;;20.70;8.50;;;;;;;8.91;81.66;100798.41;112880;1198;24074;-61
2021/09/29 05:49:09;;;;;;;21.60;10.10;;;;;;;8.97;81.78;100798.36;112885;1192;24072;-60
2021/09/29 05:51:37;;;;;;;26.20;9.90;;;;;;;9.03;81.80;100800.31;113091;1193;24072;-61
2021/09/29 05:54:05;;;;;;;25.10;9.30;;;;;;;9.08;81.69;100797.88;113515;1191;24176;-61
2021/09/29 05:56:33;;;;;;;23.30;9.20;;;;;;;9.13;81.86;100795.57;112838;1193;25080;-60
2021/09/29 05:59:01;;;;;;;19.40;8.30;;;;;;;9.17;81.80;100793.39;112817;1198;22487;-60
2021/09/29 06:01:31;;;;;;;20.50;8.50;;;;;;;9.22;81.83;100787.88;112960;1198;25239;-61
2021/09/29 06:03:59;;;;;;;22.30;8.30;;;;;;;9.27;81.84;100780.10;113092;1198;25024;-59
2021/09/29 06:06:28;;;;;;;23.00;8.50;;;;;;;9.31;81.68;100770.71;112893;1193;22472;-60
2021/09/29 06:08:56;;;;;;;21.80;8.60;;;;;;;9.35;81.87;100771.19;112946;1193;24086;-60
2021/09/29 06:11:24;;;;;;;21.60;8.80;;;;;;;9.40;81.95;100772.37;112973;1192;22426;-61
2021/09/29 06:13:53;;;;;;;21.50;7.60;;;;;;;9.46;81.83;100770.07;113006;1198;22430;-60
2021/09/29 06:16:22;;;;;;;23.00;8.90;;;;;;;9.51;81.64;100772.94;113133;1192;25054;-59
2021/09/29 06:18:52;;;;;;;19.50;7.60;;;;;;;9.55;81.69;100775.09;113060;1200;22434;-61
2021/09/29 06:21:20;;;;;;;21.40;8.30;;;;;;;9.60;81.64;100779.44;113599;1198;24171;-60
2021/09/29 06:23:51;;;;;;;18.00;7.30;;;;;;;9.64;81.61;100780.29;112783;1198;22480;-60
2021/09/29 06:26:20;;;;;;;19.50;7.10;;;;;;;9.68;81.45;100778.63;112904;1190;25118;-60
2021/09/29 06:28:48;;;;;;;20.20;7.70;;;;;;;9.73;81.38;100777.55;112986;1198;22493;-61
2021/09/29 06:31:16;;;;;;;21.20;8.80;;;;;;;9.78;81.54;100774.16;113056;1198;22548;-59
2021/09/29 06:33:49;;;;;;;22.10;7.60;;;;;;;9.85;81.40;100781.46;113047;1198;25251;-60
2021/09/29 06:36:17;;;;;;;18.10;6.90;;;;;;;9.89;81.39;100780.14;113135;1198;24340;-61
2021/09/29 06:38:46;;;;;;;22.30;8.10;;;;;;;9.95;81.11;100771.94;113180;1198;22439;-61
2021/09/29 06:41:16;;;;;;;17.40;7.10;;;;;;;10.00;81.09;100774.70;113064;1198;22483;-61
2021/09/29 06:43:44;;;;;;;23.80;6.80;;;;;;;10.04;80.86;100769.88;112998;1198;25160;-61
2021/09/29 06:46:13;;;;;;;18.50;6.50;;;;;;;10.11;81.06;100770.55;113139;1192;25137;-61
2021/09/29 06:48:42;;;;;;;19.20;6.40;;;;;;;10.17;80.78;100768.25;113020;1198;22436;-61
2021/09/29 06:51:10;;;;;;;17.80;6.40;;;;;;;10.22;80.99;100763.33;113085;1192;25135;-62
2021/09/29 06:53:39;;;;;;;18.20;6.30;;;;;;;10.29;80.92;100767.33;113083;1198;25023;-62
2021/09/29 06:56:07;;;;;;;16.20;6.50;;;;;;;10.33;80.66;100769.77;113115;1198;25111;-61
2021/09/29 06:58:37;;;;;;;18.60;6.60;;;;;;;10.39;80.43;100770.72;112932;1198;22442;-62
2021/09/29 07:01:05;;;;;;;17.80;6.50;;;;;;;10.46;80.65;100769.95;113017;1192;22452;-61
2021/09/29 07:03:33;;;;;;;17.80;6.40;;;;;;;10.53;80.70;100769.76;113021;1199;22441;-62
2021/09/29 07:06:02;;;;;;;17.00;6.00;;;;;;;10.62;80.45;100771.61;113133;1192;24050;-61
2021/09/29 07:08:30;;;;;;;18.20;6.40;;;;;;;10.69;80.36;100771.70;112953;1198;22920;-61
2021/09/29 07:10:59;;;;;;;18.00;7.00;;;;;;;10.76;80.24;100770.36;113079;1198;22506;-61
2021/09/29 07:13:29;;;;;;;20.30;6.40;;;;;;;10.84;80.03;100768.48;113464;1198;22466;-61
2021/09/29 07:15:57;;;;;;;15.90;5.90;;;;;;;10.89;79.75;100761.52;113199;1198;22563;-61
2021/09/29 07:18:29;;;;;;;17.60;5.70;;;;;;;10.93;79.39;100759.09;113612;1192;22436;-61
2021/09/29 07:21:01;;;;;;;16.30;5.40;;;;;;;10.97;79.32;100746.44;112883;1192;22447;-61
2021/09/29 07:23:30;;;;;;;17.70;6.10;;;;;;;11.02;79.28;100743.66;113073;1192;23115;-60
2021/09/29 07:25:59;;;;;;;19.90;5.70;;;;;;;11.05;79.20;100744.35;112926;1192;23452;-61
2021/09/29 07:28:28;;;;;;;20.40;6.60;;;;;;;11.09;79.31;100745.11;113167;1190;25415;-61
2021/09/29 07:30:56;;;;;;;13.80;5.50;;;;;;;11.15;79.12;100745.40;113129;1199;22435;-61
2021/09/29 07:33:25;;;;;;;18.10;6.20;;;;;;;11.19;79.30;100741.99;113345;1198;23397;-61
2021/09/29 07:35:55;;;;;;;18.30;6.40;;;;;;;11.25;78.93;100739.00;113029;1198;24092;-60
2021/09/29 07:38:26;;;;;;;13.60;5.30;;;;;;;11.29;78.65;100738.98;113008;1198;23822;-61
2021/09/29 07:40:55;;;;;;;13.90;5.10;;;;;;;11.31;78.57;100744.43;112921;1192;22527;-61
2021/09/29 07:43:23;;;;;;;17.00;5.80;;;;;;;11.35;78.69;100736.13;113035;1198;22612;-60
2021/09/29 07:45:52;;;;;;;17.60;6.20;;;;;;;11.39;78.36;100732.73;113126;1193;22453;-61
2021/09/29 07:48:21;;;;;;;18.10;6.70;;;;;;;11.43;78.10;100726.41;113206;1198;23077;-60
2021/09/29 07:50:49;;;;;;;17.50;6.20;;;;;;;11.47;78.19;100721.83;113411;1192;22908;-60
2021/09/29 07:53:20;;;;;;;20.00;6.50;;;;;;;11.51;77.99;100718.41;113130;1198;24939;-61
2021/09/29 07:55:48;;;;;;;17.20;6.10;;;;;;;11.54;77.92;100715.84;113146;1198;22427;-60
2021/09/29 07:58:16;;;;;;;16.40;5.60;;;;;;;11.58;77.70;100718.77;113004;1198;23257;-60
2021/09/29 08:00:44;;;;;;;17.40;6.70;;;;;;;11.62;77.87;100712.81;112893;1198;22688;-60
2021/09/29 08:03:12;;;;;;;18.70;6.90;;;;;;;11.67;77.80;100707.48;112981;1198;22491;-62
2021/09/29 08:05:41;;;;;;;17.60;6.10;;;;;;;11.72;77.57;100710.45;113097;1198;22458;-61
2021/09/29 08:08:09;;;;;;;17.90;6.10;;;;;;;11.75;77.37;100711.70;113072;1198;22419;-61
2021/09/29 08:10:38;;;;;;;18.50;6.70;;;;;;;11.79;77.39;100711.11;113087;1198;24072;-61
2021/09/29 08:13:06;;;;;;;22.00;7.00;;;;;;;11.84;77.67;100712.77;113165;1192;22450;-60
2021/09/29 08:15:38;;;;;;;17.20;6.90;;;;;;;11.88;77.17;100716.31;113003;1198;23132;-63
2021/09/29 08:18:06;;;;;;;17.50;6.30;;;;;;;11.92;77.15;100712.02;113154;1198;22476;-60
2021/09/29 08:20:37;;;;;;;19.50;6.40;;;;;;;11.97;76.97;100709.70;113371;1191;22478;-60
2021/09/29 08:23:10;;;;;;;17.90;5.90;;;;;;;12.02;76.86;100704.42;113177;1198;24006;-61
2021/09/29 08:28:40;;;;;;;18.60;6.00;;;;;;;12.13;76.78;100691.20;112990;1198;24131;-60
2021/09/29 08:31:12;;;;;;;19.20;7.20;;;;;;;12.17;76.51;100691.06;113097;1194;22497;-61
2021/09/29 08:34:00;;;;;;;17.60;6.60;;;;;;;12.22;76.59;100683.31;112903;1198;25264;-61
2021/09/29 08:36:34;;;;;;;19.60;7.00;;;;;;;12.28;76.67;100690.91;113177;1192;22440;-61
2021/09/29 08:39:07;;;;;;;19.70;7.30;;;;;;;12.35;76.45;100695.61;112784;1192;22452;-60
2021/09/29 08:44:25;;;;;;;17.40;6.50;;;;;;;12.44;76.35;100697.02;112962;1198;22446;-60
2021/09/29 08:47:06;;;;;;;18.50;7.30;;;;;;;12.48;75.96;100697.44;112852;1193;24187;-62
2021/09/29 08:49:48;;;;;;;24.00;7.10;;;;;;;12.51;76.11;100701.84;112830;1198;25181;-61
2021/09/29 08:52:33;;;;;;;17.70;6.70;;;;;;;12.57;76.06;100700.27;113167;1198;22448;-62
2021/09/29 09:17:42;;;;;;;120.30;59.20;;;;;;;13.08;74.98;100687.31;112518;1195;22462;-61
2021/09/29 09:20:17;;;;;;;217.70;120.80;;;;;;;13.15;75.03;100682.33;112586;1201;22452;-61
2021/09/29 09:22:51;;;;;;;38.50;16.10;;;;;;;13.22;74.63;100680.73;112845;1201;25439;-60
2021/09/29 09:25:31;;;;;;;23.60;9.40;;;;;;;13.28;74.51;100678.14;112705;1195;22553;-61
2021/09/29 09:27:59;;;;;;;20.10;6.90;;;;;;;13.36;74.36;100672.08;112510;1202;22448;-62
2021/09/29 09:30:29;;;;;;;19.20;7.70;;;;;;;13.42;74.48;100676.27;112455;1202;23011;-60
2021/09/29 09:32:58;;;;;;;22.60;6.80;;;;;;;13.51;74.53;100680.32;112739;1195;23549;-61
2021/09/29 09:35:31;;;;;;;22.10;8.50;;;;;;;13.57;73.86;100673.96;112751;1195;22438;-61
2021/09/29 09:38:01;;;;;;;20.30;8.40;;;;;;;13.61;73.64;100673.00;112510;1202;22471;-61
2021/09/29 09:40:29;;;;;;;23.50;7.50;;;;;;;13.63;73.43;100671.52;112613;1202;22701;-61
2021/09/29 09:42:58;;;;;;;26.00;6.80;;;;;;;13.70;73.76;100673.89;112450;1202;24288;-62
2021/09/29 09:45:41;;;;;;;17.00;6.10;;;;;;;13.76;73.07;100666.16;112480;1196;25314;-62
2021/09/29 09:48:23;;;;;;;17.00;6.20;;;;;;;13.79;73.00;100661.34;112613;1202;22438;-60
2021/09/29 09:51:05;;;;;;;23.00;6.80;;;;;;;13.83;72.93;100658.48;112586;1202;25026;-61
2021/09/29 09:53:35;;;;;;;16.80;6.60;;;;;;;13.86;72.79;100655.05;113056;1198;24091;-61
2021/09/29 09:56:14;;;;;;;19.80;6.20;;;;;;;13.89;72.86;100652.03;113033;1198;22417;-61
2021/09/29 09:58:46;;;;;;;19.90;7.10;;;;;;;13.93;72.92;100653.81;113337;1198;22492;-62
2021/09/29 10:01:17;;;;;;;19.60;6.40;;;;;;;13.97;72.83;100655.45;112871;1192;25300;-60
2021/09/29 10:03:47;;;;;;;18.60;6.80;;;;;;;14.03;72.82;100658.48;112915;1199;25179;-60
2021/09/29 10:06:16;;;;;;;20.30;7.00;;;;;;;14.07;72.71;100659.34;113045;1198;22589;-61
2021/09/29 10:08:48;;;;;;;16.70;6.20;;;;;;;14.12;72.72;100662.92;112943;1198;24967;-61
2021/09/29 10:11:20;;;;;;;15.40;5.80;;;;;;;14.17;72.48;100663.04;113120;1198;24201;-62
2021/09/29 10:28:11;;;;;;;17.00;6.60;;;;;;;14.38;71.34;100628.00;113294;1199;22614;-60
2021/09/29 10:30:46;;;;;;;17.60;6.50;;;;;;;14.42;71.59;100636.87;113080;1198;25118;-61
2021/09/29 10:33:22;;;;;;;17.40;6.10;;;;;;;14.49;71.66;100641.13;112968;1198;22425;-61
2021/09/29 10:36:05;;;;;;;17.40;6.80;;;;;;;14.58;71.64;100640.70;112935;1198;22426;-61
2021/09/29 10:41:38;;;;;;;18.40;5.70;;;;;;;14.75;71.38;100635.95;113013;1198;25191;-61
2021/09/29 10:44:21;;;;;;;16.50;5.50;;;;;;;14.81;71.14;100635.13;112885;1198;24088;-61
2021/09/29 10:47:03;;;;;;;16.60;6.60;;;;;;;14.86;71.29;100634.30;113102;1198;22556;-62
2021/09/29 10:52:53;;;;;;;18.70;5.70;;;;;;;15.02;70.92;100632.02;112513;1201;22425;-60
2021/09/29 11:09:52;;;;;;;21.20;8.00;;;;;;;15.11;70.09;100622.22;111919;1203;25071;-61
2021/09/29 11:29:48;;;;;;;20.20;7.80;;;;;;;15.11;69.98;100612.03;112218;1204;22454;-62
2021/09/29 11:32:28;;;;;;;22.40;7.40;;;;;;;15.15;69.96;100610.79;112177;1204;22590;-63
2021/09/29 11:35:01;;;;;;;16.60;7.00;;;;;;;15.19;69.79;100609.16;112277;1202;22444;-62
2021/09/29 11:37:45;;;;;;;22.60;8.10;;;;;;;15.21;69.42;100609.70;112660;1202;25193;-63
2021/09/29 12:08:41;;;;;;;23.90;9.00;;;;;;;15.74;68.84;100581.17;113046;1192;22441;-61
2021/09/29 12:11:14;;;;;;;21.50;9.80;;;;;;;15.80;68.73;100579.30;113246;1192;25149;-61
2021/09/29 12:13:47;;;;;;;21.30;9.50;;;;;;;15.86;68.58;100583.16;113380;1194;22473;-60
2021/09/29 12:16:26;;;;;;;71.30;34.80;;;;;;;15.91;68.48;100583.27;113157;1198;24017;-61
2021/09/29 12:18:58;;;;;;;32.30;14.90;;;;;;;15.96;68.30;100573.26;113188;1198;24161;-61
2021/09/29 12:21:41;;;;;;;26.90;11.00;;;;;;;15.97;67.99;100570.23;113270;1198;22435;-61
2021/09/29 12:24:12;;;;;;;23.20;9.60;;;;;;;15.96;67.87;100561.54;112924;1193;22437;-62
2021/09/29 12:26:48;;;;;;;21.50;9.60;;;;;;;15.95;67.93;100562.85;113043;1193;22449;-61
2021/09/29 12:29:25;;;;;;;23.10;8.50;;;;;;;15.94;67.78;100562.95;112822;1184;23788;-61
2021/09/29 12:32:02;;;;;;;23.20;10.90;;;;;;;15.91;67.68;100568.98;113096;1192;25222;-61
2021/09/29 12:34:33;;;;;;;21.50;10.10;;;;;;;15.90;67.77;100560.85;113240;1198;22551;-62
2021/09/29 12:37:13;;;;;;;25.30;11.30;;;;;;;15.87;67.71;100566.31;113008;1198;22424;-61
2021/09/29 12:39:42;;;;;;;24.50;11.60;;;;;;;15.82;67.61;100551.97;112886;1198;24114;-61
2021/09/29 12:42:10;;;;;;;25.60;13.00;;;;;;;15.81;67.55;100550.43;112966;1198;22435;-64
2021/09/29 12:44:52;;;;;;;25.90;11.30;;;;;;;15.77;67.43;100544.44;113126;1198;23431;-60
2021/09/29 12:47:35;;;;;;;26.30;11.10;;;;;;;15.75;67.66;100548.23;112913;1198;22940;-60
2021/09/29 12:50:12;;;;;;;23.00;10.80;;;;;;;15.74;67.66;100552.26;113135;1198;22441;-62
2021/09/29 12:52:48;;;;;;;25.30;11.50;;;;;;;15.73;67.76;100548.31;112989;1198;22439;-61
2021/09/29 12:55:20;;;;;;;28.40;12.60;;;;;;;15.75;67.81;100545.55;112890;1192;25118;-61
2021/09/29 12:57:49;;;;;;;24.80;11.70;;;;;;;15.76;67.77;100546.84;113000;1198;22423;-61
2021/09/29 13:00:18;;;;;;;25.50;12.20;;;;;;;15.76;67.62;100548.48;112940;1198;25041;-60
2021/09/29 13:02:46;;;;;;;25.90;12.90;;;;;;;15.76;67.76;100547.26;113039;1198;22434;-61
2021/09/29 13:05:14;;;;;;;23.50;10.80;;;;;;;15.76;67.72;100549.23;113083;1193;25135;-61
2021/09/29 13:07:43;;;;;;;26.00;11.70;;;;;;;15.75;67.61;100552.16;113091;1198;25217;-61
2021/09/29 13:10:12;;;;;;;28.70;11.90;;;;;;;15.76;67.60;100546.27;113077;1198;22439;-62
2021/09/29 13:12:40;;;;;;;27.00;12.90;;;;;;;15.78;67.73;100551.81;113473;1193;22428;-61
2021/09/29 13:15:11;;;;;;;26.20;12.70;;;;;;;15.78;67.69;100552.27;112990;1192;22464;-61